createdAt,value
2023-02-07T00:00:10.346Z,100168.09
2023-02-07T00:03:11.909Z,100179.66
2023-02-07T00:06:15.453Z,100163.66
2023-02-07T00:09:17.461Z,100167.75
2023-02-07T00:12:18.982Z,100166.41
2023-02-07T00:15:20.531Z,100172.38
2023-02-07T00:18:22.256Z,100158.19
2023-02-07T00:21:24.240Z,100162.78
2023-02-07T00:24:25.727Z,100149.41
2023-02-07T00:27:27.198Z,100160.91
2023-02-07T00:30:28.728Z,100151.44
2023-02-07T00:33:30.304Z,100164.66
2023-02-07T00:36:32.355Z,100161.56
2023-02-07T00:39:34.039Z,100164.59
2023-02-07T00:42:35.552Z,100162.28
2023-02-07T00:45:37.351Z,100179.72
2023-02-07T00:48:42.010Z,100167.84
2023-02-07T00:51:43.473Z,100172.06
2023-02-07T00:54:44.919Z,100173.16
2023-02-07T00:57:46.378Z,100154.44
2023-02-07T01:00:47.974Z,100158.16
2023-02-07T01:03:49.425Z,100167.13
2023-02-07T01:06:50.884Z,100150.63
2023-02-07T01:09:52.346Z,100146.03
2023-02-07T01:12:53.911Z,100151.34
2023-02-07T01:15:55.397Z,100152.22
2023-02-07T01:18:57.098Z,100162.25
2023-02-07T01:21:59.423Z,100161.38
2023-02-07T01:25:00.897Z,100166.88
2023-02-07T01:28:02.377Z,100179.63
2023-02-07T01:31:10.997Z,100186.34
2023-02-07T01:34:13.386Z,100170.31
2023-02-07T01:37:14.868Z,100160.09
2023-02-07T01:40:16.367Z,100164.94
2023-02-07T01:43:25.022Z,100178.47
2023-02-07T01:46:26.934Z,100178.13
2023-02-07T01:49:30.761Z,100183.84
2023-02-07T01:52:36.054Z,100174.56
2023-02-07T01:55:38.028Z,100169.72
2023-02-07T01:58:39.747Z,100160.16
2023-02-07T02:01:41.286Z,100155.88
2023-02-07T02:04:42.780Z,100161.22
2023-02-07T02:07:44.332Z,100158.66
2023-02-07T02:11:23.121Z,100177.72
2023-02-07T02:14:51.112Z,100186.53
2023-02-07T02:17:55.516Z,100201.13
2023-02-07T02:21:28.007Z,100194.59
2023-02-07T02:25:12.924Z,100188.00
2023-02-07T02:28:42.369Z,100194.91
2023-02-07T02:32:06.407Z,100200.22
2023-02-07T02:35:11.667Z,100216.00
2023-02-07T02:38:16.660Z,100223.53
2023-02-07T02:41:23.278Z,100219.84
2023-02-07T02:44:29.439Z,100227.94
2023-02-07T02:47:31.051Z,100229.16
2023-02-07T02:50:32.615Z,100252.75
2023-02-07T02:53:34.104Z,100246.13
2023-02-07T02:56:45.395Z,100249.91
2023-02-07T03:00:27.089Z,100248.19
2023-02-07T03:03:55.653Z,100248.31
2023-02-07T03:07:00.014Z,100258.44
2023-02-07T03:10:23.939Z,100243.63
2023-02-07T03:14:06.448Z,100249.34
2023-02-07T03:17:18.276Z,100232.63
2023-02-07T03:20:37.449Z,100243.31
2023-02-07T03:23:38.929Z,100236.34
2023-02-07T03:26:40.780Z,100237.56
2023-02-07T03:29:43.432Z,100246.13
2023-02-07T03:32:50.381Z,100240.44
2023-02-07T03:36:03.180Z,100239.41
2023-02-07T03:39:04.661Z,100246.88
2023-02-07T03:42:35.520Z,100235.81
2023-02-07T03:45:37.145Z,100234.13
2023-02-07T03:48:38.744Z,100240.25
2023-02-07T03:51:40.188Z,100236.59
2023-02-07T03:54:41.663Z,100232.69
2023-02-07T03:57:43.163Z,100236.38
2023-02-07T04:00:44.826Z,100241.75
2023-02-07T04:03:46.369Z,100243.31
2023-02-07T04:06:47.896Z,100240.75
2023-02-07T04:09:49.331Z,100247.22
2023-02-07T04:12:50.819Z,100248.69
2023-02-07T04:15:52.500Z,100257.13
2023-02-07T04:18:54.070Z,100259.28
2023-02-07T04:21:55.552Z,100257.03
2023-02-07T04:24:57.049Z,100249.59
2023-02-07T04:27:58.530Z,100237.84
2023-02-07T04:31:00.074Z,100252.06
2023-02-07T04:34:01.588Z,100248.59
2023-02-07T04:37:03.068Z,100245.13
2023-02-07T04:40:04.774Z,100237.69
2023-02-07T04:43:06.242Z,100240.75
2023-02-07T04:46:07.780Z,100227.19
2023-02-07T04:49:09.267Z,100222.94
2023-02-07T04:52:10.751Z,100209.22
2023-02-07T04:55:12.244Z,100208.69
2023-02-07T04:58:13.742Z,100205.72
2023-02-07T05:01:15.292Z,100207.84
2023-02-07T05:04:16.798Z,100216.06
2023-02-07T05:07:18.404Z,100227.28
2023-02-07T05:10:19.889Z,100229.84
2023-02-07T05:13:21.901Z,100240.56
2023-02-07T05:16:23.476Z,100239.28
2023-02-07T05:19:24.964Z,100238.06
2023-02-07T05:22:26.462Z,100227.59
2023-02-07T05:25:27.985Z,100239.97
2023-02-07T05:28:29.626Z,100247.66
2023-02-07T05:31:49.822Z,100237.72
2023-02-07T05:34:51.479Z,100235.03
2023-02-07T05:37:52.998Z,100248.94
2023-02-07T05:40:54.543Z,100255.94
2023-02-07T05:43:56.033Z,100248.50
2023-02-07T05:46:57.490Z,100243.06
2023-02-07T05:49:58.930Z,100247.03
2023-02-07T05:53:00.437Z,100258.06
2023-02-07T05:56:01.915Z,100251.09
2023-02-07T05:59:03.398Z,100257.22
2023-02-07T06:02:04.852Z,100254.41
2023-02-07T06:05:07.738Z,100265.78
2023-02-07T06:08:09.281Z,100272.25
2023-02-07T06:11:10.748Z,100266.56
2023-02-07T06:14:12.177Z,100271.50
2023-02-07T06:17:13.619Z,100281.06
2023-02-07T06:20:15.131Z,100286.28
2023-02-07T06:23:16.684Z,100283.31
2023-02-07T06:26:18.199Z,100275.72
2023-02-07T06:29:19.765Z,100268.31
2023-02-07T06:32:21.210Z,100272.00
2023-02-07T06:35:22.669Z,100261.34
2023-02-07T06:38:24.243Z,100253.91
2023-02-07T06:41:25.725Z,100261.50
2023-02-07T06:44:27.222Z,100251.34
2023-02-07T06:47:28.709Z,100252.56
2023-02-07T06:50:30.379Z,100266.94
2023-02-07T06:53:31.866Z,100266.38
2023-02-07T06:56:33.327Z,100264.31
2023-02-07T06:59:34.787Z,100266.22
2023-02-07T07:02:36.270Z,100273.28
2023-02-07T07:05:38.074Z,100274.25
2023-02-07T07:08:39.712Z,100279.38
2023-02-07T07:11:43.216Z,100287.97
2023-02-07T07:14:44.800Z,100290.97
2023-02-07T07:17:46.326Z,100305.88
2023-02-07T07:20:52.249Z,100308.19
2023-02-07T07:23:53.705Z,100309.97
2023-02-07T07:26:56.667Z,100319.09
2023-02-07T07:29:58.103Z,100316.91
2023-02-07T07:32:59.572Z,100318.69
2023-02-07T07:36:01.443Z,100328.28
2023-02-07T07:39:03.279Z,100325.25
2023-02-07T07:42:05.071Z,100324.28
2023-02-07T07:45:06.927Z,100325.09
2023-02-07T07:48:08.404Z,100324.72
2023-02-07T07:51:09.896Z,100337.28
2023-02-07T07:54:11.413Z,100343.69
2023-02-07T07:57:12.904Z,100354.66
2023-02-07T08:00:14.497Z,100357.94
2023-02-07T08:03:16.715Z,100360.97
2023-02-07T08:06:18.187Z,100347.91
2023-02-07T08:09:19.653Z,100335.44
2023-02-07T08:12:21.106Z,100331.16
2023-02-07T08:15:22.531Z,100330.97
2023-02-07T08:18:24.027Z,100327.53
2023-02-07T08:21:26.745Z,100328.69
2023-02-07T08:24:28.509Z,100315.63
2023-02-07T08:27:30.023Z,100319.22
2023-02-07T08:30:31.533Z,100312.78
2023-02-07T08:33:33.152Z,100318.72
2023-02-07T08:36:34.697Z,100316.53
2023-02-07T08:39:36.267Z,100314.03
2023-02-07T08:42:37.725Z,100310.13
2023-02-07T08:45:43.409Z,100307.19
2023-02-07T08:48:44.888Z,100318.53
2023-02-07T08:51:46.361Z,100324.25
2023-02-07T08:54:47.831Z,100338.00
2023-02-07T08:57:49.305Z,100340.41
2023-02-07T09:00:50.789Z,100339.06
2023-02-07T09:03:55.248Z,100336.84
2023-02-07T09:06:56.718Z,100333.38
2023-02-07T09:09:58.181Z,100332.94
2023-02-07T09:12:59.630Z,100353.63
2023-02-07T09:16:01.074Z,100346.69
2023-02-07T09:19:02.547Z,100331.09
2023-02-07T09:22:04.858Z,100344.09
2023-02-07T09:25:06.195Z,100340.53
2023-02-07T09:28:07.698Z,100353.91
2023-02-07T09:31:12.424Z,100353.78
2023-02-07T09:34:14.018Z,100359.22
2023-02-07T09:37:15.460Z,100376.97
2023-02-07T09:40:19.083Z,100388.84
2023-02-07T09:43:39.083Z,100381.75
2023-02-07T09:46:59.108Z,100391.91
2023-02-07T09:50:06.489Z,100378.69
2023-02-07T09:53:23.347Z,100382.94
2023-02-07T09:56:25.245Z,100387.06
2023-02-07T09:59:31.905Z,100378.88
2023-02-07T10:02:40.218Z,100383.91
2023-02-07T10:06:18.934Z,100371.25
2023-02-07T10:09:27.435Z,100378.59
2023-02-07T10:13:08.588Z,100372.94
2023-02-07T10:16:27.081Z,100377.22
2023-02-07T10:19:51.151Z,100398.47
2023-02-07T10:23:24.709Z,100405.63
2023-02-07T10:27:01.578Z,100389.00
2023-02-07T10:30:19.584Z,100391.63
2023-02-07T10:33:26.038Z,100381.72
2023-02-07T10:36:29.827Z,100414.84
2023-02-07T10:39:38.701Z,100413.78
2023-02-07T10:42:40.257Z,100409.69
2023-02-07T10:45:41.783Z,100410.81
2023-02-07T10:48:43.304Z,100394.81
2023-02-07T10:51:45.867Z,100410.81
2023-02-07T10:54:58.331Z,100398.00
2023-02-07T10:58:06.381Z,100411.63
2023-02-07T11:01:23.998Z,100397.06
2023-02-07T11:04:35.296Z,100393.41
2023-02-07T11:07:47.449Z,100401.66
2023-02-07T11:10:50.631Z,100409.66
2023-02-07T11:13:52.363Z,100379.28
2023-02-07T11:17:01.155Z,100387.97
2023-02-07T11:20:04.607Z,100371.38
2023-02-07T11:23:11.267Z,100381.66
2023-02-07T11:26:12.725Z,100374.13
2023-02-07T11:29:15.590Z,100354.22
2023-02-07T11:32:17.147Z,100366.09
2023-02-07T11:35:19.253Z,100372.06
2023-02-07T11:38:20.953Z,100361.59
2023-02-07T11:41:28.097Z,100365.81
2023-02-07T11:44:30.832Z,100357.25
2023-02-07T11:47:32.416Z,100368.66
2023-02-07T11:50:43.351Z,100371.94
2023-02-07T11:53:51.477Z,100367.59
2023-02-07T11:56:55.421Z,100360.00
2023-02-07T12:00:18.632Z,100360.06
2023-02-07T12:03:25.386Z,100354.41
2023-02-07T12:06:38.422Z,100347.97
2023-02-07T12:09:47.089Z,100346.25
2023-02-07T12:13:04.224Z,100347.78
2023-02-07T12:16:26.785Z,100341.56
2023-02-07T12:19:35.101Z,100340.09
2023-02-07T12:22:44.563Z,100333.66
2023-02-07T12:25:54.521Z,100328.69
2023-02-07T12:29:14.579Z,100331.88
2023-02-07T12:32:38.218Z,100318.38
2023-02-07T12:35:57.513Z,100325.97
2023-02-07T12:39:06.770Z,100326.44
2023-02-07T12:42:30.062Z,100306.06
2023-02-07T12:45:46.948Z,100318.50
2023-02-07T12:48:51.267Z,100313.00
2023-02-07T12:52:31.233Z,100316.88
2023-02-07T12:56:02.510Z,100316.91
2023-02-07T12:59:22.075Z,100307.19
2023-02-07T13:03:00.953Z,100308.66
2023-02-07T13:06:16.491Z,100314.13
2023-02-07T13:09:50.894Z,100303.91
2023-02-07T13:13:23.432Z,100302.16
2023-02-07T13:16:39.135Z,100295.41
2023-02-07T13:19:59.635Z,100303.47
2023-02-07T13:23:02.621Z,100305.38
2023-02-07T13:26:09.498Z,100303.13
2023-02-07T13:29:13.890Z,100306.00
2023-02-07T13:32:20.659Z,100299.06
2023-02-07T13:35:24.759Z,100292.75
2023-02-07T13:38:54.140Z,100290.66
2023-02-07T13:42:08.589Z,100297.59
2023-02-07T13:45:16.194Z,100299.81
2023-02-07T13:48:34.260Z,100290.91
2023-02-07T13:52:11.844Z,100293.56
2023-02-07T13:55:24.899Z,100301.41
2023-02-07T13:58:54.205Z,100296.03
2023-02-07T14:01:58.434Z,100302.63
2023-02-07T14:05:07.887Z,100301.47
2023-02-07T14:08:15.437Z,100312.72
2023-02-07T14:11:40.664Z,100306.31
2023-02-07T14:14:44.641Z,100313.22
2023-02-07T14:17:57.257Z,100309.19
2023-02-07T14:21:02.904Z,100305.72
2023-02-07T14:24:10.438Z,100310.31
2023-02-07T14:27:27.918Z,100296.94
2023-02-07T14:30:39.597Z,100297.78
2023-02-07T14:33:41.325Z,100303.28
2023-02-07T14:36:42.857Z,100305.84
2023-02-07T14:39:44.818Z,100299.09
2023-02-07T14:43:12.683Z,100302.31
2023-02-07T14:46:16.498Z,100308.91
2023-02-07T14:49:21.955Z,100313.09
2023-02-07T14:52:31.442Z,100304.94
2023-02-07T14:56:01.088Z,100303.81
2023-02-07T14:59:02.600Z,100306.16
2023-02-07T15:02:28.869Z,100301.31
2023-02-07T15:05:38.284Z,100317.03
2023-02-07T15:08:39.784Z,100320.81
2023-02-07T15:11:41.294Z,100324.59
2023-02-07T15:14:42.781Z,100340.97
2023-02-07T15:17:44.882Z,100324.63
2023-02-07T15:20:51.810Z,100325.56
2023-02-07T15:23:58.995Z,100329.66
2023-02-07T15:27:01.664Z,100326.97
2023-02-07T15:30:04.070Z,100326.72
2023-02-07T15:33:21.972Z,100322.84
2023-02-07T15:36:36.359Z,100325.78
2023-02-07T15:39:38.244Z,100331.69
2023-02-07T15:42:56.524Z,100335.03
2023-02-07T15:46:09.417Z,100329.19
2023-02-07T15:49:11.118Z,100338.56
2023-02-07T15:52:15.680Z,100329.81
2023-02-07T15:55:18.684Z,100336.97
2023-02-07T15:58:29.211Z,100351.00
2023-02-07T16:01:31.099Z,100345.59
2023-02-07T16:04:32.780Z,100345.72
2023-02-07T16:07:35.774Z,100343.94
2023-02-07T16:10:38.907Z,100348.81
2023-02-07T16:13:45.553Z,100354.16
2023-02-07T16:16:51.777Z,100356.56
2023-02-07T16:19:54.013Z,100358.25
2023-02-07T16:23:00.444Z,100361.28
2023-02-07T16:26:04.046Z,100357.19
2023-02-07T16:29:06.352Z,100363.78
2023-02-07T16:32:10.872Z,100359.56
2023-02-07T16:35:19.782Z,100363.81
2023-02-07T16:38:21.338Z,100363.50
2023-02-07T16:41:33.308Z,100362.66
2023-02-07T16:44:35.940Z,100368.69
2023-02-07T16:47:37.678Z,100373.44
2023-02-07T16:50:40.070Z,100374.84
2023-02-07T16:53:47.564Z,100376.25
2023-02-07T16:56:56.200Z,100375.56
2023-02-07T16:59:57.676Z,100378.13
2023-02-07T17:02:59.167Z,100386.94
2023-02-07T17:06:01.257Z,100386.56
2023-02-07T17:09:02.961Z,100388.63
2023-02-07T17:12:04.590Z,100388.84
2023-02-07T17:15:06.968Z,100391.09
2023-02-07T17:18:10.653Z,100394.06
2023-02-07T17:21:14.722Z,100390.13
2023-02-07T17:24:17.109Z,100385.09
2023-02-07T17:27:20.384Z,100393.09
2023-02-07T17:30:31.065Z,100387.50
2023-02-07T17:33:34.436Z,100401.22
2023-02-07T17:36:42.128Z,100389.06
2023-02-07T17:39:44.639Z,100400.50
2023-02-07T17:42:47.367Z,100400.63
2023-02-07T17:45:49.194Z,100396.81
2023-02-07T17:48:51.052Z,100398.72
2023-02-07T17:51:52.710Z,100395.50
2023-02-07T17:54:54.168Z,100402.56
2023-02-07T17:57:55.727Z,100401.81
2023-02-07T18:00:57.506Z,100405.41
2023-02-07T18:03:59.303Z,100400.59
2023-02-07T18:07:01.189Z,100402.38
2023-02-07T18:10:02.954Z,100402.19
2023-02-07T18:13:04.515Z,100398.28
2023-02-07T18:16:06.309Z,100405.31
2023-02-07T18:19:07.979Z,100407.81
2023-02-07T18:22:09.462Z,100408.16
2023-02-07T18:25:10.913Z,100411.38
2023-02-07T18:28:12.433Z,100418.69
2023-02-07T18:31:19.414Z,100413.19
2023-02-07T18:34:20.999Z,100413.06
2023-02-07T18:37:22.570Z,100417.50
2023-02-07T18:40:24.079Z,100419.03
2023-02-07T18:43:25.536Z,100417.63
2023-02-07T18:46:27.695Z,100417.53
2023-02-07T18:49:29.260Z,100414.91
2023-02-07T18:52:30.750Z,100417.34
2023-02-07T18:55:32.288Z,100408.06
2023-02-07T18:58:34.148Z,100408.53
2023-02-07T19:01:35.653Z,100402.28
2023-02-07T19:04:37.113Z,100409.75
2023-02-07T19:07:38.580Z,100416.91
2023-02-07T19:10:40.404Z,100410.16
2023-02-07T19:13:42.010Z,100406.88
2023-02-07T19:16:43.538Z,100411.13
2023-02-07T19:19:44.992Z,100416.28
2023-02-07T19:22:46.886Z,100415.16
2023-02-07T19:25:49.221Z,100415.06
2023-02-07T19:28:54.024Z,100419.06
2023-02-07T19:31:59.981Z,100418.66
2023-02-07T19:35:01.483Z,100418.09
2023-02-07T19:38:03.033Z,100418.75
2023-02-07T19:41:05.100Z,100423.66
2023-02-07T19:44:06.590Z,100406.53
2023-02-07T19:47:08.202Z,100408.28
2023-02-07T19:50:09.701Z,100402.38
2023-02-07T19:53:11.190Z,100401.94
2023-02-07T19:56:12.764Z,100412.53
2023-02-07T19:59:14.296Z,100413.19
2023-02-07T20:02:15.892Z,100413.44
2023-02-07T20:05:17.380Z,100414.97
2023-02-07T20:08:19.805Z,100411.06
2023-02-07T20:11:21.356Z,100405.94
2023-02-07T20:14:23.216Z,100406.81
2023-02-07T20:17:24.755Z,100406.94
2023-02-07T20:20:26.278Z,100414.09
2023-02-07T20:23:28.780Z,100411.06
2023-02-07T20:26:42.512Z,100411.97
2023-02-07T20:29:44.031Z,100408.84
2023-02-07T20:32:48.179Z,100418.78
2023-02-07T20:35:49.920Z,100420.53
2023-02-07T20:38:51.429Z,100424.13
2023-02-07T20:41:52.914Z,100423.22
2023-02-07T20:44:54.413Z,100412.31
2023-02-07T20:47:56.016Z,100431.56
2023-02-07T20:50:57.967Z,100430.44
2023-02-07T20:54:01.121Z,100431.91
2023-02-07T20:57:02.687Z,100434.88
2023-02-07T21:00:05.470Z,100432.13
2023-02-07T21:03:06.830Z,100430.44
2023-02-07T21:06:08.545Z,100438.53
2023-02-07T21:09:10.742Z,100437.47
2023-02-07T21:12:12.509Z,100433.63
2023-02-07T21:15:14.062Z,100439.00
2023-02-07T21:18:15.671Z,100435.44
2023-02-07T21:21:17.322Z,100428.16
2023-02-07T21:24:19.023Z,100424.81
2023-02-07T21:27:20.711Z,100427.81
2023-02-07T21:30:22.189Z,100426.06
2023-02-07T21:33:23.719Z,100431.97
2023-02-07T21:36:26.998Z,100425.78
2023-02-07T21:39:28.463Z,100420.94
2023-02-07T21:42:29.992Z,100421.94
2023-02-07T21:45:31.464Z,100418.47
2023-02-07T21:48:35.730Z,100412.13
2023-02-07T21:51:37.360Z,100413.66
2023-02-07T21:54:38.896Z,100400.97
2023-02-07T21:57:40.539Z,100392.75
2023-02-07T22:00:42.258Z,100387.31
2023-02-07T22:03:45.170Z,100388.09
2023-02-07T22:06:47.994Z,100380.84
2023-02-07T22:09:50.611Z,100380.84
2023-02-07T22:12:52.117Z,100377.50
2023-02-07T22:15:53.634Z,100378.09
2023-02-07T22:18:55.725Z,100378.97
2023-02-07T22:21:58.837Z,100380.75
2023-02-07T22:25:00.284Z,100372.97
2023-02-07T22:28:01.765Z,100364.94
2023-02-07T22:31:11.302Z,100378.28
2023-02-07T22:34:13.197Z,100371.66
2023-02-07T22:37:14.742Z,100375.63
2023-02-07T22:40:16.219Z,100370.72
2023-02-07T22:43:17.749Z,100375.41
2023-02-07T22:46:20.765Z,100375.72
2023-02-07T22:49:22.280Z,100374.31
2023-02-07T22:52:24.004Z,100384.78
2023-02-07T22:55:25.515Z,100380.56
2023-02-07T22:58:26.975Z,100381.78
2023-02-07T23:01:30.680Z,100379.78
2023-02-07T23:04:32.143Z,100378.13
2023-02-07T23:07:33.601Z,100375.22
2023-02-07T23:10:35.040Z,100381.78
2023-02-07T23:13:36.737Z,100387.81
2023-02-07T23:16:39.193Z,100392.88
2023-02-07T23:19:40.656Z,100393.81
2023-02-07T23:22:42.141Z,100394.69
2023-02-07T23:25:44.594Z,100393.59
2023-02-07T23:28:46.173Z,100390.25
2023-02-07T23:31:47.739Z,100379.78
2023-02-07T23:34:49.214Z,100373.41
2023-02-07T23:37:50.687Z,100381.22
2023-02-07T23:40:52.123Z,100382.47
2023-02-07T23:43:53.603Z,100377.78
2023-02-07T23:46:55.107Z,100387.00
2023-02-07T23:49:56.576Z,100383.78
2023-02-07T23:52:59.076Z,100386.69
2023-02-07T23:56:00.523Z,100377.53
2023-02-07T23:59:01.963Z,100373.22
